< < Back
Terminal Aerodrome Forecast


Current Version              Previous Versions:   1  2  3  4  5  6  7  8  9  

Terminal Aerodrome Forecast

329
FTUS44 KBMX 261736
TAFMGM
TAF
KMGM 261736Z 2618/2718 09005KT P6SM SCT050 SCT250
     FM270200 00000KT P6SM FEW250
     FM270300 00000KT P6SM SCT080
     FM271100 09003KT P6SM FEW120=

Latest METAR

901
SAUS80 KWBC 270300 CCA
MTRMGM
METAR KMGM 270253Z 00000KT 10SM CLR 27/21 A3003 RMK AO2 SLP167 T02670206
51012


USA.gov is the U.S. government's official web portal to all federal, state and local government web resources and services.